createdAt,value
2018-10-11T00:00:12.227Z,31.87
2018-10-11T00:02:41.951Z,33.03
2018-10-11T00:05:10.727Z,31.07
2018-10-11T00:07:46.812Z,33.63
2018-10-11T00:10:15.240Z,34.07
2018-10-11T00:12:44.059Z,35.73
2018-10-11T00:15:13.459Z,32.27
2018-10-11T00:17:42.089Z,32.23
2018-10-11T00:20:12.684Z,34.53
2018-10-11T00:22:41.388Z,33.60
2018-10-11T00:25:09.905Z,34.33
2018-10-11T00:27:38.405Z,31.97
2018-10-11T00:30:07.204Z,34.13
2018-10-11T00:32:35.801Z,33.60
2018-10-11T00:35:04.437Z,34.87
2018-10-11T00:37:33.780Z,35.70
2018-10-11T00:40:03.085Z,35.30
2018-10-11T00:42:31.624Z,34.70
2018-10-11T00:45:00.732Z,35.83
2018-10-11T00:47:30.228Z,36.53
2018-10-11T00:49:58.612Z,34.73
2018-10-11T00:52:27.197Z,34.90
2018-10-11T00:54:55.817Z,36.70
2018-10-11T00:57:25.889Z,37.63
2018-10-11T00:59:55.608Z,37.10
2018-10-11T01:02:30.404Z,37.07
2018-10-11T01:04:59.753Z,34.30
2018-10-11T01:07:28.453Z,36.20
2018-10-11T01:09:57.253Z,35.27
2018-10-11T01:12:26.548Z,35.53
2018-10-11T01:14:55.569Z,35.30
2018-10-11T01:17:25.116Z,35.57
2018-10-11T01:19:54.025Z,35.73
2018-10-11T01:22:24.073Z,34.20
2018-10-11T01:24:54.173Z,33.77
2018-10-11T01:27:23.278Z,35.17
2018-10-11T01:29:55.278Z,34.90
2018-10-11T01:32:24.294Z,35.77
2018-10-11T01:34:59.766Z,38.90
2018-10-11T01:37:28.805Z,38.77
2018-10-11T01:40:04.033Z,39.20
2018-10-11T01:42:32.863Z,40.80
2018-10-11T01:45:01.885Z,38.63
2018-10-11T01:47:30.806Z,37.43
2018-10-11T01:49:59.805Z,38.10
2018-10-11T01:52:28.599Z,36.70
2018-10-11T01:54:57.508Z,36.60
2018-10-11T01:57:26.266Z,36.20
2018-10-11T01:59:55.177Z,39.07
2018-10-11T02:02:24.213Z,37.37
2018-10-11T02:04:53.061Z,36.63
2018-10-11T02:07:21.937Z,37.53
2018-10-11T02:09:51.770Z,37.83
2018-10-11T02:12:20.798Z,37.33
2018-10-11T02:14:49.598Z,39.17
2018-10-11T02:17:18.214Z,38.00
2018-10-11T02:19:47.046Z,37.17
2018-10-11T02:22:15.824Z,39.50
2018-10-11T02:24:44.854Z,38.17
2018-10-11T02:27:13.671Z,40.63
2018-10-11T02:29:42.449Z,41.30
2018-10-11T02:32:11.270Z,38.93
2018-10-11T02:34:40.078Z,39.33
2018-10-11T02:37:09.053Z,39.17
2018-10-11T02:39:45.466Z,38.70
2018-10-11T02:42:14.310Z,37.37
2018-10-11T02:44:43.094Z,39.53
2018-10-11T02:47:11.915Z,39.60
2018-10-11T02:49:53.851Z,38.70
2018-10-11T02:52:22.627Z,38.77
2018-10-11T02:54:51.564Z,40.70
2018-10-11T02:57:31.303Z,37.20
2018-10-11T03:00:00.570Z,37.80
2018-10-11T03:02:29.588Z,38.03
2018-10-11T03:04:58.427Z,38.50
2018-10-11T03:07:28.143Z,38.80
2018-10-11T03:09:57.335Z,38.47
2018-10-11T03:12:29.271Z,37.13
2018-10-11T03:14:58.165Z,36.80
2018-10-11T03:17:29.046Z,37.57
2018-10-11T03:19:58.135Z,41.00
2018-10-11T03:22:27.952Z,38.37
2018-10-11T03:24:58.084Z,36.53
2018-10-11T03:27:26.879Z,39.27
2018-10-11T03:29:56.056Z,37.43
2018-10-11T03:32:24.810Z,37.80
2018-10-11T03:34:53.816Z,37.83
2018-10-11T03:37:22.775Z,37.07
2018-10-11T03:39:51.692Z,38.00
2018-10-11T03:42:20.398Z,37.30
2018-10-11T03:44:49.503Z,38.00
2018-10-11T03:47:18.451Z,38.80
2018-10-11T03:49:47.205Z,38.17
2018-10-11T03:52:16.072Z,37.53
2018-10-11T03:54:45.285Z,40.40
2018-10-11T03:57:14.387Z,37.50
2018-10-11T03:59:50.153Z,39.87
2018-10-11T04:02:19.192Z,40.63
2018-10-11T04:04:48.230Z,39.93
2018-10-11T04:07:17.259Z,39.13
2018-10-11T04:09:45.912Z,38.23
2018-10-11T04:12:14.618Z,40.33
2018-10-11T04:14:48.183Z,37.60
2018-10-11T04:17:21.608Z,39.77
2018-10-11T04:19:50.462Z,39.60
2018-10-11T04:22:19.120Z,38.07
2018-10-11T04:24:47.806Z,40.40
2018-10-11T04:27:20.279Z,40.77
2018-10-11T04:29:56.260Z,39.40
2018-10-11T04:32:24.890Z,37.20
2018-10-11T04:34:53.451Z,41.23
2018-10-11T04:37:21.922Z,38.37
2018-10-11T04:40:03.076Z,37.67
2018-10-11T04:42:35.142Z,38.40
2018-10-11T04:45:03.933Z,39.93
2018-10-11T04:47:32.698Z,39.60
2018-10-11T04:50:01.442Z,39.90
2018-10-11T04:52:30.914Z,41.93
2018-10-11T04:54:59.486Z,43.30
2018-10-11T04:57:28.242Z,40.30
2018-10-11T04:59:57.485Z,45.57
2018-10-11T05:02:26.187Z,38.17
2018-10-11T05:04:55.999Z,39.23
2018-10-11T05:07:24.769Z,38.17
2018-10-11T05:09:55.857Z,41.07
2018-10-11T05:12:26.425Z,37.53
2018-10-11T05:14:55.485Z,36.33
2018-10-11T05:17:25.206Z,35.20
2018-10-11T05:19:54.658Z,35.73
2018-10-11T05:22:23.682Z,35.17
2018-10-11T05:24:52.358Z,34.90
2018-10-11T05:27:23.130Z,35.30
2018-10-11T05:29:53.618Z,35.07
2018-10-11T05:32:22.899Z,34.70
2018-10-11T05:34:51.846Z,38.03
2018-10-11T05:40:18.953Z,36.33
2018-10-11T05:42:47.817Z,36.50
2018-10-11T05:45:28.362Z,34.83
2018-10-11T05:47:57.934Z,37.03
2018-10-11T05:50:27.994Z,37.10
2018-10-11T05:53:00.569Z,39.13
2018-10-11T05:55:30.502Z,39.57
2018-10-11T05:57:59.342Z,39.97
2018-10-11T06:00:28.718Z,39.00
2018-10-11T06:03:01.762Z,33.47
2018-10-11T06:05:30.934Z,39.43
2018-10-11T06:08:01.227Z,33.67
2018-10-11T06:10:32.897Z,33.40
2018-10-11T06:13:01.366Z,32.00
2018-10-11T06:15:29.790Z,36.43
2018-10-11T06:17:58.210Z,35.77
2018-10-11T06:20:26.639Z,33.20
2018-10-11T06:22:55.042Z,35.43
2018-10-11T06:25:23.419Z,35.47
2018-10-11T06:27:51.835Z,35.03
2018-10-11T06:30:20.591Z,35.33
2018-10-11T06:32:48.906Z,35.33
2018-10-11T06:35:17.394Z,34.20
2018-10-11T06:37:46.036Z,39.03
2018-10-11T06:40:14.490Z,33.83
2018-10-11T06:42:43.513Z,35.23
2018-10-11T06:45:14.166Z,37.80
2018-10-11T06:47:44.766Z,33.87
2018-10-11T06:50:13.211Z,32.63
2018-10-11T06:52:41.539Z,33.53
2018-10-11T06:55:09.878Z,32.40
2018-10-11T06:57:38.242Z,32.37
2018-10-11T07:00:06.720Z,31.30
2018-10-11T07:11:47.200Z,30.43
2018-10-11T07:14:15.866Z,30.10
2018-10-11T07:16:44.486Z,28.27
2018-10-11T07:19:13.167Z,27.97
2018-10-11T07:21:48.448Z,28.23
2018-10-11T07:24:17.832Z,28.67
2018-10-11T07:26:46.403Z,28.17
2018-10-11T07:29:15.303Z,37.73
2018-10-11T07:31:44.644Z,29.60
2018-10-11T07:34:15.164Z,28.07
2018-10-11T07:36:43.978Z,27.60
2018-10-11T07:39:13.527Z,28.67
2018-10-11T07:41:42.599Z,26.90
2018-10-11T07:44:11.200Z,27.27
2018-10-11T07:46:40.088Z,26.63
2018-10-11T07:49:09.108Z,25.53
2018-10-11T07:51:38.017Z,25.63
2018-10-11T07:54:06.503Z,27.43
2018-10-11T07:56:35.043Z,26.33
2018-10-11T07:59:04.720Z,26.37
2018-10-11T08:01:34.476Z,26.27
2018-10-11T08:04:02.856Z,26.33
2018-10-11T08:06:31.448Z,25.77
2018-10-11T08:08:59.690Z,26.80
2018-10-11T08:11:27.918Z,28.67
2018-10-11T08:13:58.436Z,25.47
2018-10-11T08:16:27.045Z,25.47
2018-10-11T08:18:55.569Z,27.73
2018-10-11T08:21:23.721Z,25.80
2018-10-11T08:23:52.084Z,25.80
2018-10-11T08:26:20.423Z,25.97
2018-10-11T08:28:48.260Z,25.53
2018-10-11T08:31:16.472Z,25.40
2018-10-11T08:33:44.516Z,24.80
2018-10-11T08:36:12.577Z,24.63
2018-10-11T08:38:40.712Z,24.97
2018-10-11T08:41:08.785Z,25.30
2018-10-11T08:43:36.931Z,24.60
2018-10-11T08:46:05.041Z,24.63
2018-10-11T08:48:33.097Z,23.07
2018-10-11T08:51:01.173Z,23.50
2018-10-11T08:53:29.279Z,23.80
2018-10-11T08:55:57.410Z,23.37
2018-10-11T08:58:25.449Z,23.63
2018-10-11T09:00:53.545Z,20.03
2018-10-11T09:03:21.760Z,19.57
2018-10-11T09:05:49.754Z,20.47
2018-10-11T09:08:17.799Z,18.80
2018-10-11T09:10:45.906Z,19.20
2018-10-11T09:13:14.000Z,25.03
2018-10-11T09:15:42.078Z,20.43
2018-10-11T09:18:10.165Z,18.93
2018-10-11T09:20:38.201Z,19.17
2018-10-11T09:23:06.374Z,18.83
2018-10-11T09:25:34.497Z,18.93
2018-10-11T09:28:02.808Z,18.53
2018-10-11T09:30:31.134Z,18.20
2018-10-11T09:32:59.206Z,19.17
2018-10-11T09:35:27.342Z,17.43
2018-10-11T09:37:55.446Z,18.47
2018-10-11T09:40:23.531Z,18.00
2018-10-11T09:42:51.652Z,18.70
2018-10-11T09:45:19.751Z,17.57
2018-10-11T09:47:47.886Z,18.57
2018-10-11T09:50:16.022Z,18.00
2018-10-11T09:52:44.270Z,18.27
2018-10-11T09:55:13.069Z,19.30
2018-10-11T09:57:41.286Z,18.30
2018-10-11T10:00:16.085Z,18.30
2018-10-11T10:02:44.753Z,19.00
2018-10-11T10:05:12.829Z,21.53
2018-10-11T10:07:40.892Z,18.63
2018-10-11T10:10:09.026Z,18.30
2018-10-11T10:12:37.078Z,20.23
2018-10-11T10:15:05.306Z,18.50
2018-10-11T10:17:33.550Z,21.10
2018-10-11T10:20:01.862Z,17.20
2018-10-11T10:22:29.921Z,18.40
2018-10-11T10:24:58.270Z,18.77
2018-10-11T10:27:26.472Z,18.10
2018-10-11T10:29:55.465Z,17.77
2018-10-11T10:32:30.110Z,17.57
2018-10-11T10:34:58.126Z,18.47
2018-10-11T10:37:26.310Z,17.70
2018-10-11T10:39:54.448Z,17.70
2018-10-11T10:42:22.454Z,22.13
2018-10-11T10:44:50.540Z,18.70
2018-10-11T10:47:18.706Z,16.32
2018-10-11T10:49:46.757Z,17.27
2018-10-11T10:52:14.850Z,18.48
2018-10-11T10:54:44.021Z,17.57
2018-10-11T10:57:12.122Z,17.45
2018-10-11T10:59:40.259Z,17.48
2018-10-11T11:02:08.334Z,16.40
2018-10-11T11:04:36.406Z,16.45
2018-10-11T11:07:04.470Z,15.28
2018-10-11T11:09:32.531Z,15.60
2018-10-11T11:12:00.591Z,15.90
2018-10-11T11:14:28.759Z,14.80
2018-10-11T11:16:56.970Z,14.78
2018-10-11T11:19:25.135Z,15.88
2018-10-11T11:21:53.208Z,15.28
2018-10-11T11:24:21.519Z,14.73
2018-10-11T11:26:49.791Z,14.55
2018-10-11T11:29:17.888Z,13.18
2018-10-11T11:31:45.975Z,12.75
2018-10-11T11:34:14.075Z,14.60
2018-10-11T11:36:42.192Z,13.25
2018-10-11T11:39:10.520Z,13.28
2018-10-11T11:41:38.883Z,12.60
2018-10-11T11:44:06.931Z,12.80
2018-10-11T11:46:34.995Z,13.35
2018-10-11T11:49:03.787Z,13.88
2018-10-11T11:51:31.866Z,12.25
2018-10-11T11:53:59.923Z,12.35
2018-10-11T11:56:28.227Z,12.45
2018-10-11T11:58:56.340Z,12.90
2018-10-11T12:01:28.424Z,13.80
2018-10-11T12:04:01.584Z,13.85
2018-10-11T12:06:39.318Z,14.95
2018-10-11T12:09:21.160Z,13.15
2018-10-11T12:16:31.657Z,12.15
2018-10-11T12:18:59.791Z,11.48
2018-10-11T12:21:28.005Z,12.03
2018-10-11T12:23:56.132Z,13.38
2018-10-11T12:26:24.185Z,13.35
2018-10-11T12:28:53.042Z,15.20
2018-10-11T12:31:21.580Z,10.98
2018-10-11T12:33:50.068Z,11.12
2018-10-11T12:36:18.194Z,10.45
2018-10-11T12:38:46.391Z,9.78
2018-10-11T12:41:14.440Z,10.00
2018-10-11T12:43:42.608Z,10.40
2018-10-11T12:46:10.698Z,9.40
2018-10-11T12:48:38.921Z,9.80
2018-10-11T12:51:07.145Z,9.48
2018-10-11T12:53:35.833Z,9.40
2018-10-11T12:56:04.109Z,10.38
2018-10-11T12:58:32.141Z,9.43
2018-10-11T13:01:00.300Z,10.23
2018-10-11T13:03:35.026Z,11.53
2018-10-11T13:06:05.334Z,9.23
2018-10-11T13:08:34.426Z,9.58
2018-10-11T13:11:12.166Z,8.03
2018-10-11T13:13:49.041Z,8.35
2018-10-11T13:16:14.128Z,8.10
2018-10-11T13:18:42.285Z,7.62
2018-10-11T13:21:10.365Z,8.40
2018-10-11T13:23:38.377Z,8.30
2018-10-11T13:26:06.373Z,7.15
2018-10-11T13:28:34.441Z,7.15
2018-10-11T13:31:02.466Z,6.75
2018-10-11T13:33:30.518Z,8.40
2018-10-11T13:35:58.785Z,7.00
2018-10-11T13:38:32.937Z,6.65
2018-10-11T13:41:15.196Z,6.03
2018-10-11T13:43:59.809Z,6.30
2018-10-11T13:46:37.297Z,7.05
2018-10-11T13:49:11.918Z,6.80
2018-10-11T13:51:48.256Z,7.20
2018-10-11T13:54:26.450Z,6.47
2018-10-11T13:57:03.263Z,7.78
2018-10-11T13:59:34.014Z,7.30
2018-10-11T14:02:09.253Z,7.33
2018-10-11T14:04:40.291Z,6.90
2018-10-11T14:07:14.945Z,6.42
2018-10-11T14:09:50.030Z,7.20
2018-10-11T14:12:24.154Z,7.58
2018-10-11T14:15:01.817Z,7.40
2018-10-11T14:17:35.590Z,7.22
2018-10-11T14:20:11.978Z,8.55
2018-10-11T14:22:43.589Z,6.47
2018-10-11T14:25:17.997Z,8.48
2018-10-11T14:27:51.341Z,6.85
2018-10-11T14:30:27.430Z,6.85
2018-10-11T14:33:13.466Z,6.75
2018-10-11T14:35:54.633Z,7.62
2018-10-11T14:39:01.662Z,6.42
2018-10-11T15:03:33.773Z,5.70
2018-10-11T15:06:03.667Z,6.67
2018-10-11T15:08:32.781Z,6.62
2018-10-11T15:11:02.179Z,5.75
2018-10-11T15:13:31.466Z,5.92
2018-10-11T15:16:00.318Z,5.58
2018-10-11T15:18:29.382Z,5.45
2018-10-11T15:20:58.082Z,6.20
2018-10-11T15:23:27.493Z,5.85
2018-10-11T15:25:56.243Z,6.30
2018-10-11T15:28:29.962Z,6.58
2018-10-11T15:30:59.762Z,6.30
2018-10-11T15:33:29.738Z,6.50
2018-10-11T15:35:59.531Z,5.67
2018-10-11T15:38:30.578Z,5.53
2018-10-11T15:41:00.715Z,6.12
2018-10-11T15:43:31.856Z,6.83
2018-10-11T15:46:01.618Z,8.17
2018-10-11T15:48:31.575Z,6.53
2018-10-11T15:51:01.362Z,6.30
2018-10-11T15:53:31.038Z,5.67
2018-10-11T15:55:59.475Z,5.30
2018-10-11T15:58:28.123Z,6.27
2018-10-11T16:00:58.145Z,5.90
2018-10-11T16:03:27.400Z,7.90
2018-10-11T16:05:57.684Z,6.57
2018-10-11T16:08:26.837Z,8.63
2018-10-11T16:10:55.657Z,8.57
2018-10-11T16:19:38.433Z,7.70
2018-10-11T16:30:21.303Z,7.30
2018-10-11T16:40:27.334Z,7.43
2018-10-11T19:23:07.248Z,10.90
2018-10-11T19:25:35.333Z,11.87
2018-10-11T19:28:03.392Z,12.03
2018-10-11T19:30:31.504Z,12.40
2018-10-11T19:32:59.565Z,12.43
2018-10-11T19:35:27.657Z,10.87
2018-10-11T19:37:55.789Z,11.10
2018-10-11T19:40:31.541Z,12.97
2018-10-11T19:43:03.648Z,12.27
2018-10-11T19:45:31.844Z,12.33
2018-10-11T19:48:00.326Z,11.93
2018-10-11T19:50:28.392Z,11.80
2018-10-11T19:52:56.541Z,12.20
2018-10-11T19:55:24.609Z,13.27
2018-10-11T19:57:52.705Z,13.20
2018-10-11T20:00:20.785Z,13.60
2018-10-11T20:02:48.880Z,12.93
2018-10-11T20:05:16.982Z,13.83
2018-10-11T20:07:45.355Z,13.37
2018-10-11T20:10:13.422Z,13.43
2018-10-11T20:12:41.474Z,14.17
2018-10-11T20:15:09.770Z,14.50
2018-10-11T20:17:37.837Z,13.53
2018-10-11T20:20:06.057Z,13.13
2018-10-11T20:22:34.157Z,13.10
2018-10-11T20:25:02.225Z,13.70
2018-10-11T20:27:30.337Z,13.83
2018-10-11T20:29:58.449Z,14.53
2018-10-11T20:32:26.701Z,12.77
2018-10-11T20:34:54.910Z,13.17
2018-10-11T20:37:22.994Z,13.37
2018-10-11T20:39:51.089Z,13.23
2018-10-11T20:42:19.149Z,15.03
2018-10-11T20:44:47.189Z,14.07
2018-10-11T20:47:15.366Z,14.53
2018-10-11T20:49:43.485Z,14.57
2018-10-11T20:52:11.557Z,20.37
2018-10-11T20:54:39.854Z,16.17
2018-10-11T20:57:07.953Z,15.43
2018-10-11T20:59:35.994Z,15.50
2018-10-11T21:02:04.297Z,17.10
2018-10-11T21:04:32.374Z,21.07
2018-10-11T21:07:00.465Z,16.47
2018-10-11T21:09:28.558Z,14.73
2018-10-11T21:11:56.645Z,14.67
2018-10-11T21:14:24.655Z,15.70
2018-10-11T21:16:52.742Z,16.47
2018-10-11T21:19:20.867Z,13.50
2018-10-11T21:21:48.978Z,13.40
2018-10-11T21:24:17.022Z,14.20
2018-10-11T21:26:45.158Z,14.03
2018-10-11T21:29:13.247Z,15.10
2018-10-11T21:31:41.391Z,14.80
2018-10-11T21:34:09.523Z,15.43
2018-10-11T21:36:37.615Z,14.13
2018-10-11T21:39:07.983Z,14.50
2018-10-11T21:41:36.098Z,14.63
2018-10-11T21:44:04.215Z,15.40
2018-10-11T21:46:32.274Z,15.17
2018-10-11T21:49:02.064Z,15.67
2018-10-11T21:51:30.115Z,15.63
2018-10-11T21:53:58.207Z,16.43
2018-10-11T21:56:27.311Z,17.17
2018-10-11T21:58:55.423Z,15.73
2018-10-11T22:01:24.585Z,16.23
2018-10-11T22:03:54.291Z,16.27
2018-10-11T22:06:23.035Z,15.87
2018-10-11T22:08:51.083Z,16.87
2018-10-11T22:11:19.195Z,17.33
2018-10-11T22:13:47.266Z,16.57
2018-10-11T22:16:15.320Z,16.87
2018-10-11T22:18:43.359Z,16.53
2018-10-11T22:21:23.304Z,17.27
2018-10-11T22:23:51.416Z,17.47
2018-10-11T22:26:19.472Z,16.33
2018-10-11T22:28:47.543Z,15.97
2018-10-11T22:31:15.640Z,16.07
2018-10-11T22:33:43.684Z,16.43
2018-10-11T22:36:12.740Z,15.57
2018-10-11T22:38:41.237Z,16.13
2018-10-11T22:41:10.032Z,15.80
2018-10-11T22:43:38.251Z,15.47
2018-10-11T22:46:06.732Z,16.27
2018-10-11T22:48:34.800Z,15.87
2018-10-11T22:51:03.004Z,16.30
2018-10-11T22:53:31.084Z,15.60
2018-10-11T22:55:59.153Z,16.10
2018-10-11T22:58:27.247Z,15.90
2018-10-11T23:00:55.284Z,15.60
2018-10-11T23:03:23.392Z,16.63
2018-10-11T23:05:51.464Z,22.73
2018-10-11T23:08:19.472Z,17.40
2018-10-11T23:10:47.532Z,17.73
2018-10-11T23:13:15.667Z,18.67
2018-10-11T23:15:43.732Z,19.00
2018-10-11T23:18:11.789Z,18.93
2018-10-11T23:20:39.813Z,18.27
2018-10-11T23:23:08.108Z,18.47
2018-10-11T23:25:36.283Z,17.97
2018-10-11T23:28:04.347Z,18.27
2018-10-11T23:30:32.377Z,18.73
2018-10-11T23:33:00.451Z,19.27
2018-10-11T23:35:28.577Z,18.73
2018-10-11T23:37:56.796Z,18.43
2018-10-11T23:40:24.892Z,20.53
2018-10-11T23:42:52.966Z,19.60
2018-10-11T23:45:21.045Z,20.67
2018-10-11T23:47:49.164Z,19.93
2018-10-11T23:50:17.193Z,20.97
2018-10-11T23:52:45.259Z,20.00
2018-10-11T23:55:13.436Z,21.50
2018-10-11T23:57:41.517Z,20.70
